sensor_id;sensor_type;location;lat;lon;timestamp;P1;durP1;ratioP1;P2;durP2;ratioP2
4148;SDS011;2088;51.032;7.082;2023-06-10T00:02:04;10.40;;;5.27;;
4148;SDS011;2088;51.032;7.082;2023-06-10T00:04:31;7.60;;;5.33;;
4148;SDS011;2088;51.032;7.082;2023-06-10T00:06:58;6.30;;;5.47;;
4148;SDS011;2088;51.032;7.082;2023-06-10T00:09:26;8.37;;;5.47;;
4148;SDS011;2088;51.032;7.082;2023-06-10T00:11:54;6.90;;;5.67;;
4148;SDS011;2088;51.032;7.082;2023-06-10T00:14:26;6.67;;;5.80;;
4148;SDS011;2088;51.032;7.082;2023-06-10T00:16:53;7.77;;;4.30;;
4148;SDS011;2088;51.032;7.082;2023-06-10T00:19:20;7.67;;;5.00;;
4148;SDS011;2088;51.032;7.082;2023-06-10T00:21:50;6.17;;;5.33;;
4148;SDS011;2088;51.032;7.082;2023-06-10T00:24:18;7.90;;;5.20;;
4148;SDS011;2088;51.032;7.082;2023-06-10T00:26:45;13.93;;;5.73;;
4148;SDS011;2088;51.032;7.082;2023-06-10T00:29:12;6.83;;;5.80;;
4148;SDS011;2088;51.032;7.082;2023-06-10T00:31:41;10.13;;;5.93;;
4148;SDS011;2088;51.032;7.082;2023-06-10T00:34:08;7.03;;;5.60;;
4148;SDS011;2088;51.032;7.082;2023-06-10T00:36:35;5.93;;;5.00;;
4148;SDS011;2088;51.032;7.082;2023-06-10T00:39:02;6.00;;;4.83;;
4148;SDS011;2088;51.032;7.082;2023-06-10T00:41:30;16.73;;;5.80;;
4148;SDS011;2088;51.032;7.082;2023-06-10T00:43:58;10.17;;;5.90;;
4148;SDS011;2088;51.032;7.082;2023-06-10T00:46:25;5.53;;;5.03;;
4148;SDS011;2088;51.032;7.082;2023-06-10T00:48:54;8.30;;;5.20;;
4148;SDS011;2088;51.032;7.082;2023-06-10T00:51:21;6.30;;;5.50;;
4148;SDS011;2088;51.032;7.082;2023-06-10T00:53:50;9.63;;;5.90;;
4148;SDS011;2088;51.032;7.082;2023-06-10T00:56:17;8.40;;;5.17;;
4148;SDS011;2088;51.032;7.082;2023-06-10T00:58:44;5.87;;;5.27;;
4148;SDS011;2088;51.032;7.082;2023-06-10T01:01:11;5.90;;;5.07;;
4148;SDS011;2088;51.032;7.082;2023-06-10T01:03:38;8.13;;;6.30;;
4148;SDS011;2088;51.032;7.082;2023-06-10T01:06:09;8.13;;;5.03;;
4148;SDS011;2088;51.032;7.082;2023-06-10T01:08:45;8.97;;;5.30;;
4148;SDS011;2088;51.032;7.082;2023-06-10T01:11:13;11.80;;;6.10;;
4148;SDS011;2088;51.032;7.082;2023-06-10T01:13:44;8.30;;;6.30;;
4148;SDS011;2088;51.032;7.082;2023-06-10T01:16:12;7.73;;;5.63;;
4148;SDS011;2088;51.032;7.082;2023-06-10T01:18:40;6.67;;;5.00;;
4148;SDS011;2088;51.032;7.082;2023-06-10T01:23:43;7.43;;;5.00;;
4148;SDS011;2088;51.032;7.082;2023-06-10T01:26:10;10.90;;;5.70;;
4148;SDS011;2088;51.032;7.082;2023-06-10T01:28:38;5.97;;;5.37;;
4148;SDS011;2088;51.032;7.082;2023-06-10T01:31:09;12.47;;;5.27;;
4148;SDS011;2088;51.032;7.082;2023-06-10T01:33:38;9.60;;;6.10;;
4148;SDS011;2088;51.032;7.082;2023-06-10T01:36:08;5.90;;;5.27;;
4148;SDS011;2088;51.032;7.082;2023-06-10T01:38:36;7.93;;;5.70;;
4148;SDS011;2088;51.032;7.082;2023-06-10T01:41:07;7.90;;;5.67;;
4148;SDS011;2088;51.032;7.082;2023-06-10T01:43:36;6.37;;;5.60;;
4148;SDS011;2088;51.032;7.082;2023-06-10T01:46:04;9.63;;;5.23;;
4148;SDS011;2088;51.032;7.082;2023-06-10T01:48:31;6.43;;;5.47;;
4148;SDS011;2088;51.032;7.082;2023-06-10T01:50:58;6.90;;;5.07;;
4148;SDS011;2088;51.032;7.082;2023-06-10T01:53:25;6.20;;;5.50;;
4148;SDS011;2088;51.032;7.082;2023-06-10T01:55:52;7.70;;;5.70;;
4148;SDS011;2088;51.032;7.082;2023-06-10T01:58:20;6.70;;;5.30;;
4148;SDS011;2088;51.032;7.082;2023-06-10T02:00:47;5.90;;;4.50;;
4148;SDS011;2088;51.032;7.082;2023-06-10T02:03:14;6.07;;;5.30;;
4148;SDS011;2088;51.032;7.082;2023-06-10T02:05:41;5.30;;;4.70;;
4148;SDS011;2088;51.032;7.082;2023-06-10T02:08:09;8.73;;;5.10;;
4148;SDS011;2088;51.032;7.082;2023-06-10T02:10:36;8.00;;;5.67;;
4148;SDS011;2088;51.032;7.082;2023-06-10T02:13:03;5.80;;;4.93;;
4148;SDS011;2088;51.032;7.082;2023-06-10T02:15:31;6.43;;;4.60;;
4148;SDS011;2088;51.032;7.082;2023-06-10T02:17:58;7.00;;;4.00;;
4148;SDS011;2088;51.032;7.082;2023-06-10T02:20:26;13.60;;;4.70;;
4148;SDS011;2088;51.032;7.082;2023-06-10T02:22:53;7.80;;;4.20;;
4148;SDS011;2088;51.032;7.082;2023-06-10T02:25:20;7.30;;;4.93;;
4148;SDS011;2088;51.032;7.082;2023-06-10T02:27:47;9.50;;;6.90;;
4148;SDS011;2088;51.032;7.082;2023-06-10T02:30:14;5.43;;;4.23;;
4148;SDS011;2088;51.032;7.082;2023-06-10T02:32:42;6.43;;;4.57;;
4148;SDS011;2088;51.032;7.082;2023-06-10T02:35:12;6.77;;;5.33;;
4148;SDS011;2088;51.032;7.082;2023-06-10T02:37:40;4.73;;;4.33;;
4148;SDS011;2088;51.032;7.082;2023-06-10T02:40:07;7.13;;;5.07;;
4148;SDS011;2088;51.032;7.082;2023-06-10T02:42:35;9.10;;;5.47;;
4148;SDS011;2088;51.032;7.082;2023-06-10T02:45:02;5.23;;;3.73;;
4148;SDS011;2088;51.032;7.082;2023-06-10T02:47:29;7.27;;;4.53;;
4148;SDS011;2088;51.032;7.082;2023-06-10T02:49:57;7.40;;;4.50;;
4148;SDS011;2088;51.032;7.082;2023-06-10T02:52:25;7.40;;;5.30;;
4148;SDS011;2088;51.032;7.082;2023-06-10T02:54:52;6.10;;;4.47;;
4148;SDS011;2088;51.032;7.082;2023-06-10T02:57:19;10.77;;;4.40;;
4148;SDS011;2088;51.032;7.082;2023-06-10T02:59:46;5.37;;;4.70;;
4148;SDS011;2088;51.032;7.082;2023-06-10T03:02:13;6.70;;;5.00;;
4148;SDS011;2088;51.032;7.082;2023-06-10T03:04:40;5.97;;;4.80;;
4148;SDS011;2088;51.032;7.082;2023-06-10T03:07:09;6.23;;;5.10;;
4148;SDS011;2088;51.032;7.082;2023-06-10T03:09:37;5.50;;;5.00;;
4148;SDS011;2088;51.032;7.082;2023-06-10T03:12:05;11.53;;;4.97;;
4148;SDS011;2088;51.032;7.082;2023-06-10T03:14:32;7.70;;;5.20;;
4148;SDS011;2088;51.032;7.082;2023-06-10T03:16:59;7.30;;;5.20;;
4148;SDS011;2088;51.032;7.082;2023-06-10T03:19:27;10.77;;;5.30;;
4148;SDS011;2088;51.032;7.082;2023-06-10T03:21:57;6.50;;;5.10;;
4148;SDS011;2088;51.032;7.082;2023-06-10T03:24:26;6.70;;;5.00;;
4148;SDS011;2088;51.032;7.082;2023-06-10T03:26:53;7.20;;;4.13;;
4148;SDS011;2088;51.032;7.082;2023-06-10T03:29:20;6.10;;;5.40;;
4148;SDS011;2088;51.032;7.082;2023-06-10T03:31:47;5.23;;;4.67;;
4148;SDS011;2088;51.032;7.082;2023-06-10T03:34:14;6.67;;;4.97;;
4148;SDS011;2088;51.032;7.082;2023-06-10T03:36:41;9.17;;;5.30;;
4148;SDS011;2088;51.032;7.082;2023-06-10T03:39:08;9.20;;;5.27;;
4148;SDS011;2088;51.032;7.082;2023-06-10T03:41:36;4.70;;;4.00;;
4148;SDS011;2088;51.032;7.082;2023-06-10T03:44:03;6.77;;;4.93;;
4148;SDS011;2088;51.032;7.082;2023-06-10T03:46:31;5.93;;;4.60;;
4148;SDS011;2088;51.032;7.082;2023-06-10T03:48:58;9.37;;;6.20;;
4148;SDS011;2088;51.032;7.082;2023-06-10T03:51:25;6.27;;;5.40;;
4148;SDS011;2088;51.032;7.082;2023-06-10T03:53:52;6.67;;;5.07;;
4148;SDS011;2088;51.032;7.082;2023-06-10T03:56:19;9.20;;;5.83;;
4148;SDS011;2088;51.032;7.082;2023-06-10T03:58:47;5.20;;;4.70;;
4148;SDS011;2088;51.032;7.082;2023-06-10T04:01:15;6.63;;;5.00;;
4148;SDS011;2088;51.032;7.082;2023-06-10T04:03:43;5.07;;;4.23;;
4148;SDS011;2088;51.032;7.082;2023-06-10T04:06:10;8.27;;;4.80;;
4148;SDS011;2088;51.032;7.082;2023-06-10T04:08:37;7.20;;;5.50;;
4148;SDS011;2088;51.032;7.082;2023-06-10T04:11:04;7.27;;;5.10;;
4148;SDS011;2088;51.032;7.082;2023-06-10T04:13:31;6.30;;;4.60;;
4148;SDS011;2088;51.032;7.082;2023-06-10T04:15:59;7.10;;;5.50;;
4148;SDS011;2088;51.032;7.082;2023-06-10T04:18:27;6.97;;;4.83;;
4148;SDS011;2088;51.032;7.082;2023-06-10T04:20:54;6.27;;;4.70;;
4148;SDS011;2088;51.032;7.082;2023-06-10T04:23:21;7.80;;;4.73;;
4148;SDS011;2088;51.032;7.082;2023-06-10T04:25:48;11.73;;;6.10;;
4148;SDS011;2088;51.032;7.082;2023-06-10T04:28:15;5.63;;;4.20;;
4148;SDS011;2088;51.032;7.082;2023-06-10T04:30:42;6.30;;;5.17;;
4148;SDS011;2088;51.032;7.082;2023-06-10T04:33:12;7.30;;;4.67;;
4148;SDS011;2088;51.032;7.082;2023-06-10T04:35:39;5.10;;;4.27;;
4148;SDS011;2088;51.032;7.082;2023-06-10T04:38:06;7.50;;;6.13;;
4148;SDS011;2088;51.032;7.082;2023-06-10T04:40:33;7.30;;;6.03;;
4148;SDS011;2088;51.032;7.082;2023-06-10T04:43:00;8.80;;;6.00;;
4148;SDS011;2088;51.032;7.082;2023-06-10T04:45:27;6.33;;;4.80;;
4148;SDS011;2088;51.032;7.082;2023-06-10T04:47:54;10.17;;;5.73;;
4148;SDS011;2088;51.032;7.082;2023-06-10T04:50:24;7.60;;;5.30;;
4148;SDS011;2088;51.032;7.082;2023-06-10T04:52:51;6.77;;;5.17;;
4148;SDS011;2088;51.032;7.082;2023-06-10T04:55:18;7.27;;;4.73;;
4148;SDS011;2088;51.032;7.082;2023-06-10T04:57:46;7.60;;;5.03;;
4148;SDS011;2088;51.032;7.082;2023-06-10T05:00:13;7.47;;;4.90;;
4148;SDS011;2088;51.032;7.082;2023-06-10T05:02:41;8.90;;;6.00;;
4148;SDS011;2088;51.032;7.082;2023-06-10T05:05:08;8.53;;;5.50;;
4148;SDS011;2088;51.032;7.082;2023-06-10T05:07:36;6.23;;;4.87;;
4148;SDS011;2088;51.032;7.082;2023-06-10T05:10:03;11.13;;;5.47;;
4148;SDS011;2088;51.032;7.082;2023-06-10T05:12:31;6.60;;;5.27;;
4148;SDS011;2088;51.032;7.082;2023-06-10T05:14:58;6.73;;;5.33;;
4148;SDS011;2088;51.032;7.082;2023-06-10T05:17:25;8.43;;;4.90;;
4148;SDS011;2088;51.032;7.082;2023-06-10T05:19:52;8.00;;;4.80;;
4148;SDS011;2088;51.032;7.082;2023-06-10T05:22:19;8.90;;;5.07;;
4148;SDS011;2088;51.032;7.082;2023-06-10T05:24:50;5.40;;;4.90;;
4148;SDS011;2088;51.032;7.082;2023-06-10T05:27:17;5.57;;;4.50;;
4148;SDS011;2088;51.032;7.082;2023-06-10T05:29:44;6.10;;;5.40;;
4148;SDS011;2088;51.032;7.082;2023-06-10T05:32:11;7.60;;;5.17;;
4148;SDS011;2088;51.032;7.082;2023-06-10T05:34:38;7.23;;;5.70;;
4148;SDS011;2088;51.032;7.082;2023-06-10T05:37:05;7.40;;;5.00;;
4148;SDS011;2088;51.032;7.082;2023-06-10T05:39:32;7.30;;;5.40;;
4148;SDS011;2088;51.032;7.082;2023-06-10T05:42:04;7.60;;;5.20;;
4148;SDS011;2088;51.032;7.082;2023-06-10T05:44:31;6.40;;;4.70;;
4148;SDS011;2088;51.032;7.082;2023-06-10T05:46:58;9.70;;;6.03;;
4148;SDS011;2088;51.032;7.082;2023-06-10T05:49:25;7.00;;;5.70;;
4148;SDS011;2088;51.032;7.082;2023-06-10T05:51:52;5.80;;;5.07;;
4148;SDS011;2088;51.032;7.082;2023-06-10T05:54:21;7.67;;;5.93;;
4148;SDS011;2088;51.032;7.082;2023-06-10T05:56:48;12.63;;;6.20;;
4148;SDS011;2088;51.032;7.082;2023-06-10T05:59:16;11.20;;;6.37;;
4148;SDS011;2088;51.032;7.082;2023-06-10T06:01:43;8.83;;;5.47;;
4148;SDS011;2088;51.032;7.082;2023-06-10T06:04:10;9.97;;;6.50;;
4148;SDS011;2088;51.032;7.082;2023-06-10T06:06:38;7.33;;;5.23;;
4148;SDS011;2088;51.032;7.082;2023-06-10T06:09:05;7.00;;;5.50;;
4148;SDS011;2088;51.032;7.082;2023-06-10T06:11:33;8.07;;;6.17;;
4148;SDS011;2088;51.032;7.082;2023-06-10T06:14:00;8.03;;;6.40;;
4148;SDS011;2088;51.032;7.082;2023-06-10T06:16:28;10.63;;;7.10;;
4148;SDS011;2088;51.032;7.082;2023-06-10T06:18:55;10.20;;;6.23;;
4148;SDS011;2088;51.032;7.082;2023-06-10T06:21:22;7.67;;;5.77;;
4148;SDS011;2088;51.032;7.082;2023-06-10T06:23:49;6.30;;;5.50;;
4148;SDS011;2088;51.032;7.082;2023-06-10T06:26:16;6.50;;;5.43;;
4148;SDS011;2088;51.032;7.082;2023-06-10T06:28:43;8.50;;;6.10;;
4148;SDS011;2088;51.032;7.082;2023-06-10T06:31:10;8.17;;;6.53;;
4148;SDS011;2088;51.032;7.082;2023-06-10T06:33:39;7.27;;;6.53;;
4148;SDS011;2088;51.032;7.082;2023-06-10T06:36:06;7.80;;;6.10;;
4148;SDS011;2088;51.032;7.082;2023-06-10T06:38:33;8.97;;;6.43;;
4148;SDS011;2088;51.032;7.082;2023-06-10T06:41:00;6.80;;;6.13;;
4148;SDS011;2088;51.032;7.082;2023-06-10T06:43:30;8.00;;;6.43;;
4148;SDS011;2088;51.032;7.082;2023-06-10T06:45:58;10.03;;;5.40;;
4148;SDS011;2088;51.032;7.082;2023-06-10T06:48:25;8.33;;;5.00;;
4148;SDS011;2088;51.032;7.082;2023-06-10T06:50:53;7.40;;;5.47;;
4148;SDS011;2088;51.032;7.082;2023-06-10T06:53:23;8.03;;;6.10;;
4148;SDS011;2088;51.032;7.082;2023-06-10T06:55:50;7.90;;;5.77;;
4148;SDS011;2088;51.032;7.082;2023-06-10T06:58:17;10.07;;;5.63;;
4148;SDS011;2088;51.032;7.082;2023-06-10T07:00:44;7.10;;;5.60;;
4148;SDS011;2088;51.032;7.082;2023-06-10T07:03:11;7.10;;;4.87;;
4148;SDS011;2088;51.032;7.082;2023-06-10T07:05:38;7.50;;;5.20;;
4148;SDS011;2088;51.032;7.082;2023-06-10T07:08:06;10.60;;;5.70;;
4148;SDS011;2088;51.032;7.082;2023-06-10T07:10:33;5.50;;;4.53;;
4148;SDS011;2088;51.032;7.082;2023-06-10T07:13:00;6.70;;;4.17;;
4148;SDS011;2088;51.032;7.082;2023-06-10T07:15:28;6.80;;;4.37;;
4148;SDS011;2088;51.032;7.082;2023-06-10T07:17:55;5.20;;;3.77;;
4148;SDS011;2088;51.032;7.082;2023-06-10T07:20:22;6.50;;;4.90;;
4148;SDS011;2088;51.032;7.082;2023-06-10T07:22:49;6.13;;;4.23;;
4148;SDS011;2088;51.032;7.082;2023-06-10T07:25:17;5.37;;;4.53;;
4148;SDS011;2088;51.032;7.082;2023-06-10T07:27:44;4.50;;;4.00;;
4148;SDS011;2088;51.032;7.082;2023-06-10T07:30:11;18.23;;;4.20;;
4148;SDS011;2088;51.032;7.082;2023-06-10T07:32:39;7.87;;;4.83;;
4148;SDS011;2088;51.032;7.082;2023-06-10T07:35:08;11.53;;;4.27;;
4148;SDS011;2088;51.032;7.082;2023-06-10T07:37:35;6.50;;;4.60;;
4148;SDS011;2088;51.032;7.082;2023-06-10T07:40:02;6.33;;;5.27;;
4148;SDS011;2088;51.032;7.082;2023-06-10T07:42:31;9.27;;;4.30;;
4148;SDS011;2088;51.032;7.082;2023-06-10T07:44:58;6.30;;;4.27;;
4148;SDS011;2088;51.032;7.082;2023-06-10T07:47:25;5.10;;;4.40;;
4148;SDS011;2088;51.032;7.082;2023-06-10T07:49:52;6.17;;;4.30;;
4148;SDS011;2088;51.032;7.082;2023-06-10T07:52:19;7.23;;;4.40;;
4148;SDS011;2088;51.032;7.082;2023-06-10T07:54:46;5.50;;;4.60;;
4148;SDS011;2088;51.032;7.082;2023-06-10T07:57:13;5.57;;;4.13;;
4148;SDS011;2088;51.032;7.082;2023-06-10T07:59:42;4.80;;;4.20;;
4148;SDS011;2088;51.032;7.082;2023-06-10T08:02:09;5.70;;;4.17;;
4148;SDS011;2088;51.032;7.082;2023-06-10T08:04:36;5.00;;;4.50;;
4148;SDS011;2088;51.032;7.082;2023-06-10T08:07:03;5.60;;;4.80;;
4148;SDS011;2088;51.032;7.082;2023-06-10T08:09:30;7.80;;;5.20;;
4148;SDS011;2088;51.032;7.082;2023-06-10T08:11:57;9.00;;;4.97;;
4148;SDS011;2088;51.032;7.082;2023-06-10T08:14:24;6.23;;;4.83;;
4148;SDS011;2088;51.032;7.082;2023-06-10T08:16:53;5.27;;;4.77;;
4148;SDS011;2088;51.032;7.082;2023-06-10T08:19:20;6.57;;;4.57;;
4148;SDS011;2088;51.032;7.082;2023-06-10T08:21:47;6.90;;;5.10;;
4148;SDS011;2088;51.032;7.082;2023-06-10T08:24:14;4.83;;;4.20;;
4148;SDS011;2088;51.032;7.082;2023-06-10T08:26:43;5.10;;;4.07;;
4148;SDS011;2088;51.032;7.082;2023-06-10T08:29:11;6.50;;;4.97;;
4148;SDS011;2088;51.032;7.082;2023-06-10T08:31:40;5.93;;;4.57;;
4148;SDS011;2088;51.032;7.082;2023-06-10T08:34:09;6.77;;;5.00;;
4148;SDS011;2088;51.032;7.082;2023-06-10T08:36:36;7.70;;;4.03;;
4148;SDS011;2088;51.032;7.082;2023-06-10T08:39:04;8.63;;;4.53;;
4148;SDS011;2088;51.032;7.082;2023-06-10T08:41:33;9.70;;;4.67;;
4148;SDS011;2088;51.032;7.082;2023-06-10T08:44:03;8.43;;;4.50;;
4148;SDS011;2088;51.032;7.082;2023-06-10T08:46:32;6.77;;;4.77;;
4148;SDS011;2088;51.032;7.082;2023-06-10T08:49:00;6.80;;;5.00;;
4148;SDS011;2088;51.032;7.082;2023-06-10T08:51:29;7.67;;;5.17;;
4148;SDS011;2088;51.032;7.082;2023-06-10T08:53:58;10.43;;;6.17;;
4148;SDS011;2088;51.032;7.082;2023-06-10T08:56:27;7.10;;;4.80;;
4148;SDS011;2088;51.032;7.082;2023-06-10T08:58:55;10.53;;;4.90;;
4148;SDS011;2088;51.032;7.082;2023-06-10T09:01:23;9.97;;;4.77;;
4148;SDS011;2088;51.032;7.082;2023-06-10T09:03:50;7.07;;;5.13;;
4148;SDS011;2088;51.032;7.082;2023-06-10T09:06:17;5.07;;;4.60;;
4148;SDS011;2088;51.032;7.082;2023-06-10T09:08:46;6.53;;;5.27;;
4148;SDS011;2088;51.032;7.082;2023-06-10T09:11:13;5.20;;;4.50;;
4148;SDS011;2088;51.032;7.082;2023-06-10T09:13:40;8.43;;;4.67;;
4148;SDS011;2088;51.032;7.082;2023-06-10T09:16:07;6.23;;;5.30;;
4148;SDS011;2088;51.032;7.082;2023-06-10T09:18:36;10.10;;;4.30;;
4148;SDS011;2088;51.032;7.082;2023-06-10T09:21:03;5.40;;;4.90;;
4148;SDS011;2088;51.032;7.082;2023-06-10T09:23:30;5.53;;;4.97;;
4148;SDS011;2088;51.032;7.082;2023-06-10T09:25:59;5.13;;;4.63;;
4148;SDS011;2088;51.032;7.082;2023-06-10T09:28:26;4.53;;;3.97;;
4148;SDS011;2088;51.032;7.082;2023-06-10T09:31:02;7.00;;;5.30;;
4148;SDS011;2088;51.032;7.082;2023-06-10T09:33:30;4.23;;;3.83;;
4148;SDS011;2088;51.032;7.082;2023-06-10T09:35:57;6.80;;;4.70;;
4148;SDS011;2088;51.032;7.082;2023-06-10T09:38:29;5.03;;;4.40;;
4148;SDS011;2088;51.032;7.082;2023-06-10T09:40:56;6.63;;;4.87;;
4148;SDS011;2088;51.032;7.082;2023-06-10T09:43:25;4.40;;;4.00;;
4148;SDS011;2088;51.032;7.082;2023-06-10T09:46:04;4.90;;;3.97;;
4148;SDS011;2088;51.032;7.082;2023-06-10T09:48:34;5.53;;;5.03;;
4148;SDS011;2088;51.032;7.082;2023-06-10T09:51:01;5.67;;;4.70;;
4148;SDS011;2088;51.032;7.082;2023-06-10T09:53:28;4.30;;;3.90;;
4148;SDS011;2088;51.032;7.082;2023-06-10T09:55:59;10.10;;;4.97;;
4148;SDS011;2088;51.032;7.082;2023-06-10T09:58:34;4.37;;;3.97;;
4148;SDS011;2088;51.032;7.082;2023-06-10T10:01:04;5.73;;;5.00;;
4148;SDS011;2088;51.032;7.082;2023-06-10T10:03:31;6.97;;;4.93;;
4148;SDS011;2088;51.032;7.082;2023-06-10T10:05:58;6.63;;;5.03;;
4148;SDS011;2088;51.032;7.082;2023-06-10T10:08:25;5.00;;;4.50;;
4148;SDS011;2088;51.032;7.082;2023-06-10T10:10:52;6.50;;;4.90;;
4148;SDS011;2088;51.032;7.082;2023-06-10T10:13:20;7.67;;;4.47;;
4148;SDS011;2088;51.032;7.082;2023-06-10T10:15:48;5.80;;;4.57;;
4148;SDS011;2088;51.032;7.082;2023-06-10T10:18:16;12.00;;;4.70;;
4148;SDS011;2088;51.032;7.082;2023-06-10T10:20:49;4.67;;;4.27;;
4148;SDS011;2088;51.032;7.082;2023-06-10T10:23:18;4.20;;;3.77;;
4148;SDS011;2088;51.032;7.082;2023-06-10T10:25:49;4.43;;;4.03;;
4148;SDS011;2088;51.032;7.082;2023-06-10T10:28:18;7.40;;;4.97;;
4148;SDS011;2088;51.032;7.082;2023-06-10T10:30:47;17.03;;;4.73;;
4148;SDS011;2088;51.032;7.082;2023-06-10T10:33:18;4.63;;;3.50;;
4148;SDS011;2088;51.032;7.082;2023-06-10T10:35:47;4.93;;;4.40;;
4148;SDS011;2088;51.032;7.082;2023-06-10T10:38:14;5.80;;;4.67;;
4148;SDS011;2088;51.032;7.082;2023-06-10T10:40:41;6.00;;;4.20;;
4148;SDS011;2088;51.032;7.082;2023-06-10T10:43:10;3.87;;;3.47;;
4148;SDS011;2088;51.032;7.082;2023-06-10T10:45:37;5.47;;;4.03;;
4148;SDS011;2088;51.032;7.082;2023-06-10T10:48:05;6.17;;;4.70;;
4148;SDS011;2088;51.032;7.082;2023-06-10T10:50:35;5.40;;;4.47;;
4148;SDS011;2088;51.032;7.082;2023-06-10T10:53:02;5.27;;;4.77;;
4148;SDS011;2088;51.032;7.082;2023-06-10T10:55:30;4.90;;;4.37;;
4148;SDS011;2088;51.032;7.082;2023-06-10T10:57:58;6.30;;;3.93;;
4148;SDS011;2088;51.032;7.082;2023-06-10T11:00:29;5.33;;;4.07;;
4148;SDS011;2088;51.032;7.082;2023-06-10T11:03:00;5.67;;;3.90;;
4148;SDS011;2088;51.032;7.082;2023-06-10T11:05:32;4.70;;;4.27;;
4148;SDS011;2088;51.032;7.082;2023-06-10T11:08:03;6.50;;;3.67;;
4148;SDS011;2088;51.032;7.082;2023-06-10T11:10:31;4.73;;;4.20;;
4148;SDS011;2088;51.032;7.082;2023-06-10T11:12:58;4.90;;;4.50;;
4148;SDS011;2088;51.032;7.082;2023-06-10T11:15:26;6.03;;;4.67;;
4148;SDS011;2088;51.032;7.082;2023-06-10T11:18:12;10.33;;;4.70;;
4148;SDS011;2088;51.032;7.082;2023-06-10T11:20:46;14.90;;;4.63;;
4148;SDS011;2088;51.032;7.082;2023-06-10T11:23:32;6.50;;;4.30;;
4148;SDS011;2088;51.032;7.082;2023-06-10T11:26:12;6.60;;;3.80;;
4148;SDS011;2088;51.032;7.082;2023-06-10T11:28:39;7.03;;;5.13;;
4148;SDS011;2088;51.032;7.082;2023-06-10T11:31:06;10.60;;;6.37;;
4148;SDS011;2088;51.032;7.082;2023-06-10T11:33:33;6.33;;;4.83;;
4148;SDS011;2088;51.032;7.082;2023-06-10T11:36:00;6.73;;;5.40;;
4148;SDS011;2088;51.032;7.082;2023-06-10T11:38:27;5.30;;;4.77;;
4148;SDS011;2088;51.032;7.082;2023-06-10T11:40:56;7.33;;;5.20;;
4148;SDS011;2088;51.032;7.082;2023-06-10T11:43:23;5.13;;;4.23;;
4148;SDS011;2088;51.032;7.082;2023-06-10T11:45:53;9.87;;;5.30;;
4148;SDS011;2088;51.032;7.082;2023-06-10T11:48:21;7.10;;;5.33;;
4148;SDS011;2088;51.032;7.082;2023-06-10T11:50:48;5.30;;;4.80;;
4148;SDS011;2088;51.032;7.082;2023-06-10T11:53:15;7.37;;;5.00;;
4148;SDS011;2088;51.032;7.082;2023-06-10T11:55:44;6.00;;;5.10;;
4148;SDS011;2088;51.032;7.082;2023-06-10T11:58:16;14.13;;;4.73;;
4148;SDS011;2088;51.032;7.082;2023-06-10T12:00:43;6.13;;;4.03;;
4148;SDS011;2088;51.032;7.082;2023-06-10T12:03:11;4.83;;;4.00;;
4148;SDS011;2088;51.032;7.082;2023-06-10T12:05:38;5.60;;;5.10;;
4148;SDS011;2088;51.032;7.082;2023-06-10T12:08:08;3.97;;;3.60;;
4148;SDS011;2088;51.032;7.082;2023-06-10T12:10:39;7.70;;;3.60;;
4148;SDS011;2088;51.032;7.082;2023-06-10T12:13:06;4.80;;;4.40;;
4148;SDS011;2088;51.032;7.082;2023-06-10T12:15:35;4.93;;;3.50;;
4148;SDS011;2088;51.032;7.082;2023-06-10T12:18:02;3.77;;;3.47;;
4148;SDS011;2088;51.032;7.082;2023-06-10T12:20:30;3.55;;;3.25;;
4148;SDS011;2088;51.032;7.082;2023-06-10T12:22:59;4.05;;;2.72;;
4148;SDS011;2088;51.032;7.082;2023-06-10T12:25:26;3.40;;;3.20;;
4148;SDS011;2088;51.032;7.082;2023-06-10T12:27:55;3.20;;;2.88;;
4148;SDS011;2088;51.032;7.082;2023-06-10T12:30:23;3.75;;;3.38;;
4148;SDS011;2088;51.032;7.082;2023-06-10T12:32:52;4.20;;;3.05;;
4148;SDS011;2088;51.032;7.082;2023-06-10T12:35:20;3.55;;;3.08;;
4148;SDS011;2088;51.032;7.082;2023-06-10T12:37:55;3.45;;;3.08;;
4148;SDS011;2088;51.032;7.082;2023-06-10T12:40:25;3.45;;;3.08;;
4148;SDS011;2088;51.032;7.082;2023-06-10T12:42:53;8.43;;;3.70;;
4148;SDS011;2088;51.032;7.082;2023-06-10T12:45:26;3.67;;;3.38;;
4148;SDS011;2088;51.032;7.082;2023-06-10T12:48:03;3.90;;;3.60;;
4148;SDS011;2088;51.032;7.082;2023-06-10T12:50:31;6.80;;;3.60;;
4148;SDS011;2088;51.032;7.082;2023-06-10T12:52:58;3.80;;;3.20;;
4148;SDS011;2088;51.032;7.082;2023-06-10T12:55:25;3.42;;;3.00;;
4148;SDS011;2088;51.032;7.082;2023-06-10T12:57:53;3.63;;;3.28;;
4148;SDS011;2088;51.032;7.082;2023-06-10T13:00:21;3.58;;;3.28;;
4148;SDS011;2088;51.032;7.082;2023-06-10T13:02:50;3.70;;;3.10;;
4148;SDS011;2088;51.032;7.082;2023-06-10T13:05:19;2.85;;;2.65;;
4148;SDS011;2088;51.032;7.082;2023-06-10T13:07:46;3.45;;;2.80;;
4148;SDS011;2088;51.032;7.082;2023-06-10T13:10:14;2.92;;;2.72;;
4148;SDS011;2088;51.032;7.082;2023-06-10T13:12:41;2.72;;;2.53;;
4148;SDS011;2088;51.032;7.082;2023-06-10T13:15:08;2.83;;;2.63;;
4148;SDS011;2088;51.032;7.082;2023-06-10T13:17:36;2.75;;;2.55;;
4148;SDS011;2088;51.032;7.082;2023-06-10T13:20:03;2.72;;;2.45;;
4148;SDS011;2088;51.032;7.082;2023-06-10T13:22:32;2.90;;;2.70;;
4148;SDS011;2088;51.032;7.082;2023-06-10T13:25:00;3.15;;;2.95;;
4148;SDS011;2088;51.032;7.082;2023-06-10T13:27:28;3.35;;;3.05;;
4148;SDS011;2088;51.032;7.082;2023-06-10T13:29:55;2.93;;;2.57;;
4148;SDS011;2088;51.032;7.082;2023-06-10T13:32:22;3.90;;;3.17;;
4148;SDS011;2088;51.032;7.082;2023-06-10T13:34:49;3.20;;;2.90;;
4148;SDS011;2088;51.032;7.082;2023-06-10T13:37:16;4.50;;;3.53;;
4148;SDS011;2088;51.032;7.082;2023-06-10T13:39:44;4.80;;;3.07;;
4148;SDS011;2088;51.032;7.082;2023-06-10T13:42:13;4.10;;;3.43;;
4148;SDS011;2088;51.032;7.082;2023-06-10T13:44:40;5.33;;;3.40;;
4148;SDS011;2088;51.032;7.082;2023-06-10T13:47:07;7.67;;;3.50;;
4148;SDS011;2088;51.032;7.082;2023-06-10T13:49:34;3.43;;;3.10;;
4148;SDS011;2088;51.032;7.082;2023-06-10T13:52:02;6.03;;;3.23;;
4148;SDS011;2088;51.032;7.082;2023-06-10T13:54:29;3.37;;;3.07;;
4148;SDS011;2088;51.032;7.082;2023-06-10T13:56:57;3.50;;;3.20;;
4148;SDS011;2088;51.032;7.082;2023-06-10T13:59:25;4.87;;;3.40;;
4148;SDS011;2088;51.032;7.082;2023-06-10T14:01:52;4.80;;;3.43;;
4148;SDS011;2088;51.032;7.082;2023-06-10T14:04:19;2.60;;;2.40;;
4148;SDS011;2088;51.032;7.082;2023-06-10T14:06:46;7.03;;;3.77;;
4148;SDS011;2088;51.032;7.082;2023-06-10T14:09:13;4.77;;;3.30;;
4148;SDS011;2088;51.032;7.082;2023-06-10T14:11:41;2.97;;;2.77;;
4148;SDS011;2088;51.032;7.082;2023-06-10T14:14:10;3.77;;;3.20;;
4148;SDS011;2088;51.032;7.082;2023-06-10T14:16:37;3.20;;;2.80;;
4148;SDS011;2088;51.032;7.082;2023-06-10T14:19:04;3.90;;;2.97;;
4148;SDS011;2088;51.032;7.082;2023-06-10T14:21:31;7.63;;;3.47;;
4148;SDS011;2088;51.032;7.082;2023-06-10T14:23:58;6.90;;;3.50;;
4148;SDS011;2088;51.032;7.082;2023-06-10T14:26:25;5.03;;;3.70;;
4148;SDS011;2088;51.032;7.082;2023-06-10T14:28:52;4.13;;;3.73;;
4148;SDS011;2088;51.032;7.082;2023-06-10T14:31:20;4.83;;;3.63;;
4148;SDS011;2088;51.032;7.082;2023-06-10T14:33:47;4.77;;;3.90;;
4148;SDS011;2088;51.032;7.082;2023-06-10T14:36:14;6.43;;;4.20;;
4148;SDS011;2088;51.032;7.082;2023-06-10T14:38:42;4.20;;;3.40;;
4148;SDS011;2088;51.032;7.082;2023-06-10T14:41:11;6.07;;;3.43;;
4148;SDS011;2088;51.032;7.082;2023-06-10T14:43:38;7.10;;;3.57;;
4148;SDS011;2088;51.032;7.082;2023-06-10T14:46:05;4.43;;;4.03;;
4148;SDS011;2088;51.032;7.082;2023-06-10T14:48:34;4.90;;;3.97;;
4148;SDS011;2088;51.032;7.082;2023-06-10T14:51:01;3.50;;;3.23;;
4148;SDS011;2088;51.032;7.082;2023-06-10T14:53:28;4.20;;;3.57;;
4148;SDS011;2088;51.032;7.082;2023-06-10T14:55:55;4.23;;;3.40;;
4148;SDS011;2088;51.032;7.082;2023-06-10T14:58:22;3.47;;;3.17;;
4148;SDS011;2088;51.032;7.082;2023-06-10T15:00:49;9.73;;;3.33;;
4148;SDS011;2088;51.032;7.082;2023-06-10T15:03:16;3.33;;;2.93;;
4148;SDS011;2088;51.032;7.082;2023-06-10T15:05:45;2.77;;;2.57;;
4148;SDS011;2088;51.032;7.082;2023-06-10T15:08:12;5.40;;;2.92;;
4148;SDS011;2088;51.032;7.082;2023-06-10T15:10:39;2.92;;;2.53;;
4148;SDS011;2088;51.032;7.082;2023-06-10T15:13:06;4.05;;;3.03;;
4148;SDS011;2088;51.032;7.082;2023-06-10T15:15:33;3.28;;;2.53;;
4148;SDS011;2088;51.032;7.082;2023-06-10T15:18:00;4.63;;;2.42;;
4148;SDS011;2088;51.032;7.082;2023-06-10T15:20:27;4.10;;;2.20;;
4148;SDS011;2088;51.032;7.082;2023-06-10T15:22:56;2.03;;;1.85;;